Time;durP1;ratioP1;P1;durP2;ratioP2;P2;SDS_P1;SDS_P2;PMS_P1;PMS_P2;Temp;Humidity;BMP_temperature;BMP_pressure;BME280_temperature;BME280_humidity;BME280_pressure;Samples;Min_cycle;Max_cycle;Signal;HPM_P1;HPM_P2
2023/05/24 00:00:05;;;;;;;;;;;;;;;16.16;100.00;98990.25;4250640;33;33165;-96
2023/05/24 00:02:33;;;;;;;;;;;;;;;16.06;100.00;98990.62;4239895;33;35549;-96
2023/05/24 00:05:23;;;;;;;;;;;;;;;16.17;100.00;98986.72;4240105;33;34003;-96
2023/05/24 00:07:52;;;;;;;;;;;;;;;16.22;100.00;98985.63;4240520;33;31885;-96
2023/05/24 00:10:41;;;;;;;;;;;;;;;15.94;100.00;98977.13;4253073;33;34496;-96
2023/05/24 00:13:30;;;;;;;;;;;;;;;15.88;100.00;98975.56;4262317;33;34605;-96
2023/05/24 00:15:58;;;;;;;;;;;;;;;15.68;100.00;98981.53;4227628;33;36067;-96
2023/05/24 00:18:46;;;;;;;;;;;;;;;16.04;99.25;98974.06;4248810;33;31954;-96
2023/05/24 00:21:38;;;;;;;;;;;;;;;15.62;100.00;98974.75;4248449;33;34273;-96
2023/05/24 00:24:09;;;;;;;;;;;;;;;15.67;99.88;98979.81;4227394;33;34996;-96
2023/05/24 00:27:18;;;;;;;;;;;;;;;15.91;98.44;98973.66;4231242;33;33572;-96
2023/05/24 00:29:54;;;;;;;;;;;;;;;15.70;99.94;98970.06;4249601;33;31484;-96
2023/05/24 00:32:43;;;;;;;;;;;;;;;15.71;98.91;98960.44;4238941;33;32479;-96
2023/05/24 00:35:32;;;;;;;;;;;;;;;15.32;100.00;98967.09;4238208;33;35369;-96
2023/05/24 00:38:20;;;;;;;;;;;;;;;15.34;100.00;98969.66;4236547;33;33013;-96
2023/05/24 00:40:55;;;;;;;;;;;;;;;15.18;100.00;98966.75;4238269;33;33562;-96
2023/05/24 00:43:29;;;;;;;;;;;;;;;15.20;100.00;98971.94;4236880;33;32504;-96
2023/05/24 00:46:19;;;;;;;;;;;;;;;15.16;100.00;98960.69;4260550;33;35295;-96
2023/05/24 00:49:08;;;;;;;;;;;;;;;15.20;100.00;98964.91;4237469;33;33274;-96
2023/05/24 00:51:38;;;;;;;;;;;;;;;15.23;100.00;98958.69;4226573;33;32247;-96
2023/05/24 00:54:34;;;;;;;;;;;;;;;15.19;100.00;98964.97;4227423;33;32945;-96
2023/05/24 00:57:02;;;;;;;;;;;;;;;15.40;100.00;98971.22;4204467;33;927282;-96
2023/05/24 00:59:31;;;;;;;;;;;;;;;15.40;100.00;98969.44;4245205;33;34530;-96
2023/05/24 01:02:20;;;;;;;;;;;;;;;15.68;100.00;98974.50;4238144;33;33243;-96
2023/05/24 01:04:55;;;;;;;;;;;;;;;15.94;100.00;98982.38;4249281;33;33203;-96
2023/05/24 01:07:29;;;;;;;;;;;;;;;16.00;100.00;98985.59;4238548;33;34139;-95
2023/05/24 01:10:25;;;;;;;;;;;;;;;16.26;100.00;98978.47;4239833;33;33706;-96
2023/05/24 01:13:25;;;;;;;;;;;;;;;16.27;100.00;98967.03;4248309;33;32039;-96
2023/05/24 01:15:59;;;;;;;;;;;;;;;16.11;100.00;98978.16;4263792;33;33173;-96
2023/05/24 01:18:31;;;;;;;;;;;;;;;16.23;100.00;98974.19;4241505;33;35597;-96
2023/05/24 01:21:47;;;;;;;;;;;;;;;16.32;100.00;98970.31;4231123;33;33266;-96
2023/05/24 01:24:17;;;;;;;;;;;;;;;16.20;100.00;98966.44;4252048;33;33860;-96
2023/05/24 01:27:13;;;;;;;;;;;;;;;15.98;100.00;98958.53;4249139;33;33831;-96
2023/05/24 01:29:41;;;;;;;;;;;;;;;15.94;100.00;98962.22;4240838;33;33941;-96
2023/05/24 01:32:30;;;;;;;;;;;;;;;15.87;100.00;98963.38;4240725;33;33662;-96
2023/05/24 01:35:19;;;;;;;;;;;;;;;15.72;100.00;98964.75;4249544;33;31709;-96
2023/05/24 01:38:09;;;;;;;;;;;;;;;15.89;100.00;98958.91;4240000;33;32755;-96
2023/05/24 01:41:04;;;;;;;;;;;;;;;15.88;100.00;98954.56;4230385;33;35195;-96
2023/05/24 01:44:19;;;;;;;;;;;;;;;15.78;100.00;98951.44;4230787;33;33361;-96
2023/05/24 01:47:14;;;;;;;;;;;;;;;15.90;100.00;98948.34;4229106;33;33126;-96
2023/05/24 01:50:27;;;;;;;;;;;;;;;15.59;100.00;98948.63;4246975;33;34138;-96
2023/05/24 01:53:38;;;;;;;;;;;;;;;15.61;100.00;98946.78;4240583;33;33997;-96
2023/05/24 01:56:21;;;;;;;;;;;;;;;15.84;100.00;98945.09;4238154;33;33513;-96
2023/05/24 01:59:02;;;;;;;;;;;;;;;15.89;100.00;98941.37;4237730;33;32265;-96
2023/05/24 02:01:52;;;;;;;;;;;;;;;15.75;100.00;98942.81;4241038;33;32896;-96
2023/05/24 02:05:00;;;;;;;;;;;;;;;15.84;100.00;98952.97;4233869;33;33818;-96
2023/05/24 02:08:09;;;;;;;;;;;;;;;15.82;100.00;98944.31;4242742;33;33657;-96
2023/05/24 02:10:46;;;;;;;;;;;;;;;16.16;100.00;98948.22;4242008;33;32167;-96
2023/05/24 02:13:34;;;;;;;;;;;;;;;16.49;100.00;98952.09;4243171;33;33064;-96
2023/05/24 02:16:25;;;;;;;;;;;;;;;16.46;100.00;98952.22;4255738;33;35026;-96
2023/05/24 02:18:59;;;;;;;;;;;;;;;16.62;100.00;98956.84;4242360;33;35820;-96
2023/05/24 02:21:28;;;;;;;;;;;;;;;16.59;100.00;98951.72;4254077;33;32557;-95
2023/05/24 02:24:17;;;;;;;;;;;;;;;16.82;100.00;98958.66;4245978;33;32607;-96
2023/05/24 02:27:25;;;;;;;;;;;;;;;16.72;100.00;98946.81;4232108;33;34090;-96
2023/05/24 02:30:15;;;;;;;;;;;;;;;16.60;100.00;98953.44;4235252;33;33271;-96
2023/05/24 02:33:04;;;;;;;;;;;;;;;16.52;100.00;98953.78;4226117;34;34948;-96
2023/05/24 02:36:13;;;;;;;;;;;;;;;16.40;100.00;98947.22;4238221;33;33213;-96
2023/05/24 02:38:50;;;;;;;;;;;;;;;16.40;100.00;98941.97;4225773;34;34672;-96
2023/05/24 02:41:59;;;;;;;;;;;;;;;16.29;100.00;98941.56;4226554;33;34503;-96
2023/05/24 02:44:38;;;;;;;;;;;;;;;16.35;100.00;98941.31;4225344;33;31526;-96
2023/05/24 02:47:27;;;;;;;;;;;;;;;16.31;100.00;98934.47;4235754;33;32883;-96
2023/05/24 02:50:17;;;;;;;;;;;;;;;16.27;100.00;98931.12;4226518;34;34250;-96
2023/05/24 02:53:10;;;;;;;;;;;;;;;16.26;100.00;98926.78;4234622;33;33520;-96
2023/05/24 02:55:59;;;;;;;;;;;;;;;16.00;100.00;98933.06;4218165;33;31724;-96
2023/05/24 02:58:49;;;;;;;;;;;;;;;15.99;100.00;98931.38;4237409;33;32886;-96
2023/05/24 03:01:58;;;;;;;;;;;;;;;15.85;100.00;98939.78;4223393;33;34484;-96
2023/05/24 03:05:06;;;;;;;;;;;;;;;15.94;100.00;98938.56;4218999;34;33543;-96
2023/05/24 03:08:15;;;;;;;;;;;;;;;16.06;100.00;98932.84;4245259;33;32715;-96
2023/05/24 03:10:50;;;;;;;;;;;;;;;16.06;100.00;98937.25;4225753;34;34340;-96
2023/05/24 03:13:31;;;;;;;;;;;;;;;16.26;100.00;98944.31;4223662;33;34051;-95
2023/05/24 03:16:20;;;;;;;;;;;;;;;16.40;100.00;98949.87;4250908;33;34480;-96
2023/05/24 03:19:08;;;;;;;;;;;;;;;16.63;100.00;98954.16;4233749;33;32042;-96
2023/05/24 03:22:18;;;;;;;;;;;;;;;16.47;100.00;98946.06;4245357;33;33015;-96
2023/05/24 03:25:29;;;;;;;;;;;;;;;16.55;100.00;98958.03;4252223;33;34019;-96
2023/05/24 03:27:58;;;;;;;;;;;;;;;16.54;100.00;98949.31;4250670;33;33547;-96
2023/05/24 03:30:48;;;;;;;;;;;;;;;16.70;100.00;98948.66;4230521;33;32495;-96
2023/05/24 03:33:37;;;;;;;;;;;;;;;16.60;100.00;98953.44;4253275;33;32479;-96
2023/05/24 03:36:12;;;;;;;;;;;;;;;17.02;100.00;98944.69;4251869;33;35296;-96
2023/05/24 03:39:03;;;;;;;;;;;;;;;17.03;100.00;98959.56;4249131;33;34749;-96
2023/05/24 03:41:54;;;;;;;;;;;;;;;16.89;100.00;98954.00;4269289;33;32277;-96
2023/05/24 03:44:44;;;;;;;;;;;;;;;17.03;100.00;98955.16;4231932;33;32935;-96
2023/05/24 03:47:12;;;;;;;;;;;;;;;17.25;100.00;98956.81;4240833;33;35501;-96
2023/05/24 03:49:40;;;;;;;;;;;;;;;17.25;100.00;98964.72;4264040;33;34989;-96
2023/05/24 03:52:09;;;;;;;;;;;;;;;17.23;100.00;98969.19;4264301;33;33216;-96
2023/05/24 03:54:57;;;;;;;;;;;;;;;17.24;100.00;98971.78;4260855;33;33912;-96
2023/05/24 03:57:28;;;;;;;;;;;;;;;17.33;100.00;98975.78;4253944;33;35419;-96
2023/05/24 04:00:18;;;;;;;;;;;;;;;17.33;100.00;98975.78;4256216;33;33510;-96
2023/05/24 04:03:32;;;;;;;;;;;;;;;17.54;100.00;98976.59;4255357;33;31971;-96
2023/05/24 04:06:18;;;;;;;;;;;;;;;17.79;100.00;98970.22;4245854;33;31977;-96
2023/05/24 04:09:15;;;;;;;;;;;;;;;17.71;100.00;98980.22;4249826;33;33789;-96
2023/05/24 04:12:03;;;;;;;;;;;;;;;17.43;100.00;98976.19;4239517;33;35206;-96
2023/05/24 04:14:52;;;;;;;;;;;;;;;17.66;100.00;98980.44;4241101;33;32882;-96
2023/05/24 04:17:53;;;;;;;;;;;;;;;17.59;100.00;98987.78;4267805;33;32986;-96
2023/05/24 04:21:08;;;;;;;;;;;;;;;17.84;99.12;98986.63;4262011;33;34015;-96
2023/05/24 04:24:00;;;;;;;;;;;;;;;17.46;100.00;98986.59;4232373;33;33155;-96
2023/05/24 04:26:29;;;;;;;;;;;;;;;17.28;100.00;98992.66;4221596;33;32422;-96
2023/05/24 04:29:02;;;;;;;;;;;;;;;17.64;100.00;98995.44;4244265;33;35602;-96
2023/05/24 04:31:55;;;;;;;;;;;;;;;17.51;100.00;98994.31;4244227;33;33905;-96
2023/05/24 04:35:06;;;;;;;;;;;;;;;17.36;100.00;98991.41;4284353;33;19998;-96
2023/05/24 04:38:01;;;;;;;;;;;;;;;17.52;100.00;98994.22;4257895;33;31948;-96
2023/05/24 04:40:58;;;;;;;;;;;;;;;17.86;100.00;99000.63;4284707;33;33742;-96
2023/05/24 04:43:53;;;;;;;;;;;;;;;17.61;100.00;99000.84;4276795;33;35030;-96
2023/05/24 04:46:23;;;;;;;;;;;;;;;18.04;98.87;98998.06;4268634;28;34756;-96
2023/05/24 04:49:29;;;;;;;;;;;;;;;18.12;96.97;99004.66;4249067;33;32128;-96
2023/05/24 04:52:17;;;;;;;;;;;;;;;17.89;99.49;99003.09;4247963;33;33978;-96
2023/05/24 04:54:48;;;;;;;;;;;;;;;18.03;99.80;98996.34;4240712;33;33901;-96
2023/05/24 04:57:17;;;;;;;;;;;;;;;18.06;99.21;99006.75;4263112;33;34092;-96
2023/05/24 05:00:12;;;;;;;;;;;;;;;18.15;99.07;99006.31;4247473;33;33373;-96
2023/05/24 05:02:48;;;;;;;;;;;;;;;18.53;96.76;98999.22;4249833;33;33805;-95
2023/05/24 05:05:38;;;;;;;;;;;;;;;18.23;96.55;99008.56;4240253;33;35483;-96
2023/05/24 05:08:10;;;;;;;;;;;;;;;18.38;96.29;99011.34;4227618;33;34768;-96
2023/05/24 05:11:04;;;;;;;;;;;;;;;18.20;96.80;99012.22;4239193;33;33491;-95
2023/05/24 05:13:32;;;;;;;;;;;;;;;18.23;95.91;99014.72;4225856;33;33256;-95
2023/05/24 05:16:00;;;;;;;;;;;;;;;18.45;95.40;99011.06;4259444;33;34908;-96
2023/05/24 05:18:29;;;;;;;;;;;;;;;18.94;92.65;99016.59;4248381;33;33317;-96
2023/05/24 05:20:57;;;;;;;;;;;;;;;18.88;91.22;99022.16;4237817;33;33518;-96
2023/05/24 05:23:35;;;;;;;;;;;;;;;18.88;91.09;99023.03;4227553;33;32471;-96
2023/05/24 05:26:02;;;;;;;;;;;;;;;19.13;90.74;99021.78;4249541;33;35533;-96
2023/05/24 05:28:31;;;;;;;;;;;;;;;19.04;90.74;99017.84;4248978;33;33144;-96
2023/05/24 05:30:59;;;;;;;;;;;;;;;19.29;90.35;99016.56;4260408;33;33233;-96
2023/05/24 05:33:30;;;;;;;;;;;;;;;19.00;89.92;99015.41;4250292;33;34734;-96
2023/05/24 05:36:03;;;;;;;;;;;;;;;19.45;87.76;99016.63;4239094;33;35249;-96
2023/05/24 05:38:31;;;;;;;;;;;;;;;19.85;85.46;99018.03;4249290;33;33146;-96
2023/05/24 05:40:59;;;;;;;;;;;;;;;19.73;85.15;99013.38;4236796;33;32897;-95
2023/05/24 05:43:30;;;;;;;;;;;;;;;19.57;85.94;99025.69;4239056;33;34079;-96
2023/05/24 05:45:59;;;;;;;;;;;;;;;19.89;83.72;99016.91;4262937;33;35038;-96
2023/05/24 05:48:28;;;;;;;;;;;;;;;19.84;83.62;99024.25;4253857;33;35163;-96
2023/05/24 05:50:57;;;;;;;;;;;;;;;19.72;85.11;99027.50;4262533;33;34219;-96
2023/05/24 05:53:25;;;;;;;;;;;;;;;19.93;83.21;99038.75;4250041;33;34178;-96
2023/05/24 05:55:53;;;;;;;;;;;;;;;19.99;81.71;99035.75;4250792;33;34994;-96
2023/05/24 05:58:26;;;;;;;;;;;;;;;20.17;80.76;99038.34;4252697;33;35223;-96
2023/05/24 06:00:55;;;;;;;;;;;;;;;19.52;85.51;99039.97;4263742;33;33626;-96
2023/05/24 06:03:24;;;;;;;;;;;;;;;19.84;82.90;99045.38;4249238;33;33078;-96
2023/05/24 06:05:57;;;;;;;;;;;;;;;20.46;82.54;99042.84;4238348;33;34620;-96
2023/05/24 06:08:44;;;;;;;;;;;;;;;19.81;82.84;99048.19;4265246;28;35371;-95
2023/05/24 06:11:34;;;;;;;;;;;;;;;20.04;82.09;99056.66;4311497;28;33648;-96
2023/05/24 06:14:17;;;;;;;;;;;;;;;20.43;80.10;99058.03;4260704;33;34274;-95
2023/05/24 06:17:00;;;;;;;;;;;;;;;20.85;78.73;99051.28;4232953;33;35100;-96
2023/05/24 06:19:52;;;;;;;;;;;;;;;21.57;73.74;99057.66;4254436;28;34793;-96
2023/05/24 06:22:28;;;;;;;;;;;;;;;20.80;76.56;99056.00;4271867;33;33736;-96
2023/05/24 06:24:57;;;;;;;;;;;;;;;21.05;77.27;99063.37;4261669;33;34287;-96
2023/05/24 06:27:25;;;;;;;;;;;;;;;21.55;72.97;99058.72;4241538;33;35495;-95
2023/05/24 06:29:54;;;;;;;;;;;;;;;21.89;71.38;99069.88;4236871;33;36688;-96
2023/05/24 06:32:23;;;;;;;;;;;;;;;21.43;73.32;99070.84;4247874;33;34351;-96
2023/05/24 06:34:51;;;;;;;;;;;;;;;21.25;73.66;99066.62;4248432;33;33822;-94
2023/05/24 06:37:23;;;;;;;;;;;;;;;21.44;73.06;99071.69;4247856;33;35002;-96
2023/05/24 06:39:52;;;;;;;;;;;;;;;21.58;74.46;99069.09;4247742;33;34392;-95
2023/05/24 06:42:22;;;;;;;;;;;;;;;22.08;71.45;99069.59;4236918;33;32109;-95
2023/05/24 06:44:50;;;;;;;;;;;;;;;22.20;71.92;99082.09;4247644;33;34195;-95
2023/05/24 06:47:20;;;;;;;;;;;;;;;22.15;69.42;99074.41;4248860;33;35003;-93
2023/05/24 06:49:48;;;;;;;;;;;;;;;;;;4247408;33;34561;-94
2023/05/24 06:52:16;;;;;;;;;;;;;;;22.73;66.32;99079.63;4248405;33;33058;-96
2023/05/24 06:54:44;;;;;;;;;;;;;;;22.46;68.52;99082.25;4237471;33;35865;-95
2023/05/24 06:57:15;;;;;;;;;;;;;;;22.71;66.87;99078.87;4250794;33;34488;-96
2023/05/24 06:59:43;;;;;;;;;;;;;;;22.80;65.39;99085.38;4263087;33;33893;-95
2023/05/24 07:02:12;;;;;;;;;;;;;;;22.51;66.28;99081.00;4263583;33;33589;-96
2023/05/24 07:04:41;;;;;;;;;;;;;;;22.41;68.33;99089.66;4252145;33;33254;-95
2023/05/24 07:07:14;;;;;;;;;;;;;;;22.46;67.35;99090.22;4251307;33;35693;-95
2023/05/24 07:09:43;;;;;;;;;;;;;;;22.46;67.63;99092.88;4252673;33;34849;-96
2023/05/24 07:12:11;;;;;;;;;;;;;;;22.70;65.31;99095.75;4265151;33;33855;-95
2023/05/24 07:14:39;;;;;;;;;;;;;;;22.38;66.93;99101.31;4252492;33;33323;-95
2023/05/24 07:17:08;;;;;;;;;;;;;;;22.18;67.89;99099.88;4264762;33;35249;-96
2023/05/24 07:19:37;;;;;;;;;;;;;;;22.62;66.61;99103.34;4267194;33;34751;-96
2023/05/24 07:22:28;;;;;;;;;;;;;;;22.79;66.67;99100.47;4255348;33;32442;-95
2023/05/24 07:24:57;;;;;;;;;;;;;;;23.14;66.12;99104.47;4264254;33;33870;-94
2023/05/24 07:27:28;;;;;;;;;;;;;;;23.51;62.97;99112.56;4249191;33;35218;-95
2023/05/24 07:29:58;;;;;;;;;;;;;;;23.26;62.52;99123.06;4250973;33;34959;-95
2023/05/24 07:32:31;;;;;;;;;;;;;;;23.30;62.72;99112.25;4249608;33;33882;-95
2023/05/24 07:35:01;;;;;;;;;;;;;;;23.38;62.44;99115.22;4249506;33;34276;-96
2023/05/24 07:37:33;;;;;;;;;;;;;;;23.51;65.41;99108.13;4249216;33;35439;-96
2023/05/24 07:40:05;;;;;;;;;;;;;;;22.99;65.86;99116.91;4248274;33;34726;-96
2023/05/24 07:42:34;;;;;;;;;;;;;;;23.56;62.60;99115.78;4237155;33;32086;-96
2023/05/24 07:45:05;;;;;;;;;;;;;;;23.48;64.24;99116.31;4249776;33;33809;-96
2023/05/24 07:47:47;;;;;;;;;;;;;;;24.07;62.29;99117.63;4257086;33;34192;-96
2023/05/24 07:50:35;;;;;;;;;;;;;;;24.26;61.75;99119.84;4257338;33;34886;-96
2023/05/24 07:53:08;;;;;;;;;;;;;;;24.42;60.42;99126.66;4254574;33;32596;-96
2023/05/24 07:55:38;;;;;;;;;;;;;;;24.63;61.06;99128.75;4252535;33;34209;-96
2023/05/24 07:58:07;;;;;;;;;;;;;;;24.84;57.75;99122.81;4252285;33;36045;-96
2023/05/24 08:00:41;;;;;;;;;;;;;;;24.92;57.84;99123.13;4254092;33;35783;-95
2023/05/24 08:03:14;;;;;;;;;;;;;;;24.60;60.15;99121.84;4260058;33;33494;-96
2023/05/24 08:05:50;;;;;;;;;;;;;;;24.09;63.57;99129.00;4254232;33;32762;-95
2023/05/24 08:08:23;;;;;;;;;;;;;;;24.08;63.36;99122.84;4262937;33;35064;-96
2023/05/24 08:10:51;;;;;;;;;;;;;;;25.07;59.46;99132.63;4252821;33;33967;-96
2023/05/24 08:13:45;;;;;;;;;;;;;;;24.62;60.13;99131.50;4264089;33;33496;-95
2023/05/24 08:16:14;;;;;;;;;;;;;;;24.33;59.18;99135.25;4265137;33;34166;-95
2023/05/24 08:18:43;;;;;;;;;;;;;;;24.41;58.38;99134.75;4266204;33;35842;-96
2023/05/24 08:21:24;;;;;;;;;;;;;;;24.51;56.81;99140.25;4264656;33;35477;-96
2023/05/24 08:23:52;;;;;;;;;;;;;;;24.06;58.92;99139.91;4252575;33;31718;-95
2023/05/24 08:26:21;;;;;;;;;;;;;;;24.18;61.54;99136.38;4264143;33;33291;-96
2023/05/24 08:28:55;;;;;;;;;;;;;;;24.57;58.10;99146.00;4267690;33;35007;-96
2023/05/24 08:32:01;;;;;;;;;;;;;;;24.63;60.55;99133.22;4259518;33;35189;-96
2023/05/24 08:34:54;;;;;;;;;;;;;;;24.70;59.02;99135.31;4267562;33;34386;-96
2023/05/24 08:37:39;;;;;;;;;;;;;;;24.74;59.75;99152.78;4269394;33;33770;-96
2023/05/24 08:40:10;;;;;;;;;;;;;;;24.74;58.85;99147.47;4268322;33;36454;-96
2023/05/24 08:42:58;;;;;;;;;;;;;;;24.61;58.66;99146.63;4254313;33;33804;-93
2023/05/24 08:45:31;;;;;;;;;;;;;;;24.26;60.11;99147.31;4259273;33;32986;-95
2023/05/24 08:48:09;;;;;;;;;;;;;;;24.37;61.10;99150.06;4266303;28;33403;-95
2023/05/24 08:50:37;;;;;;;;;;;;;;;24.71;59.49;99158.34;4248188;33;36214;-96
2023/05/24 08:53:11;;;;;;;;;;;;;;;24.96;56.99;99161.88;4261646;33;34363;-95
2023/05/24 08:55:54;;;;;;;;;;;;;;;24.67;57.96;99162.19;4268146;28;32828;-96
2023/05/24 08:58:38;;;;;;;;;;;;;;;23.79;61.83;99164.72;4250484;33;34561;-95
2023/05/24 09:01:14;;;;;;;;;;;;;;;23.45;59.94;99167.88;4248788;33;35782;-96
2023/05/24 09:03:45;;;;;;;;;;;;;;;23.62;62.01;99169.38;4255845;33;35201;-95
2023/05/24 09:06:15;;;;;;;;;;;;;;;23.51;62.98;99173.72;4279564;28;33234;-95
2023/05/24 09:08:51;;;;;;;;;;;;;;;23.14;62.83;99174.34;4256288;33;34166;-95
2023/05/24 09:11:22;;;;;;;;;;;;;;;23.31;62.57;99177.69;4267091;28;35648;-95
2023/05/24 09:14:03;;;;;;;;;;;;;;;23.41;62.25;99190.28;4277175;28;35111;-96
2023/05/24 09:17:14;;;;;;;;;;;;;;;23.31;61.58;99186.50;4266144;28;33326;-95
2023/05/24 09:19:49;;;;;;;;;;;;;;;23.67;65.05;99183.22;4272970;33;34478;-96
2023/05/24 09:22:37;;;;;;;;;;;;;;;23.66;62.56;99185.97;4293285;28;34952;-96
2023/05/24 09:25:45;;;;;;;;;;;;;;;23.53;61.82;99193.94;4269053;28;32943;-96
2023/05/24 09:28:35;;;;;;;;;;;;;;;24.46;58.30;99191.16;4278846;28;33054;-95
2023/05/24 09:31:40;;;;;;;;;;;;;;;25.00;59.10;99195.31;4607114;28;34270;-96
2023/05/24 09:37:58;;;;;;;;;;;;;;;25.38;55.62;99183.69;4354264;28;35459;31
2023/05/24 09:45:16;;;;;;;;;;;;;;;25.06;55.65;99183.34;4437144;28;35752;31
2023/05/24 09:49:46;;;;;;;;;;;;;;;25.70;56.25;99175.91;4267986;28;36483;-96
2023/05/24 09:53:53;;;;;;;;;;;;;;;25.04;58.00;99188.78;4187134;28;35957;31
2023/05/24 09:57:35;;;;;;;;;;;;;;;25.67;55.57;99183.28;4696141;28;33765;-96
2023/05/24 10:01:32;;;;;;;;;;;;;;;25.68;52.19;99185.00;4180592;28;34747;-96
2023/05/24 10:05:40;;;;;;;;;;;;;;;26.34;54.95;99192.44;4291695;28;34935;-96
2023/05/24 10:10:03;;;;;;;;;;;;;;;25.73;53.95;99197.03;4151248;34;35834;-96
2023/05/24 10:13:53;;;;;;;;;;;;;;;26.21;54.40;99190.72;4269113;28;35053;-96
2023/05/24 10:18:22;;;;;;;;;;;;;;;27.07;51.45;99200.87;4400632;28;33874;-96
2023/05/24 10:22:18;;;;;;;;;;;;;;;27.00;50.77;99190.72;4373024;29;36557;31
2023/05/24 10:25:56;;;;;;;;;;;;;;;27.57;49.09;99187.88;4139727;34;36364;-96
2023/05/24 10:29:46;;;;;;;;;;;;;;;26.92;49.27;99187.81;4262411;29;32431;-96
2023/05/24 10:36:21;;;;;;;;;;;;;;;27.67;47.00;99183.41;4811756;26;20028;-96
2023/05/24 10:40:19;;;;;;;;;;;;;;;27.67;47.00;99183.41;4112381;26;26135;-96
2023/05/24 10:44:11;;;;;;;;;;;;;;;27.36;49.35;99186.00;4938970;26;19989;-96
2023/05/24 10:47:58;;;;;;;;;;;;;;;27.52;47.47;99179.38;4613779;26;34054;-96
2023/05/24 10:51:33;;;;;;;;;;;;;;;27.45;50.18;99171.00;4455221;26;33648;-96
2023/05/24 11:00:08;;;;;;;;;;;;;;;26.96;48.18;99177.72;4398702;27;36442;-96
2023/05/24 11:19:08;;;;;;;;;;;;;;;27.90;46.45;99176.13;4415774;27;35844;-96
2023/05/24 11:23:56;;;;;;;;;;;;;;;27.30;45.48;99165.13;4396308;27;34455;-96
2023/05/24 11:28:12;;;;;;;;;;;;;;;27.15;46.54;99179.72;4298145;33;35435;-95
2023/05/24 11:35:49;;;;;;;;;;;;;;;27.94;44.10;99166.06;4349407;27;36194;-96
2023/05/24 11:38:57;;;;;;;;;;;;;;;27.36;46.13;99164.59;4305615;27;31637;-96
2023/05/24 11:42:05;;;;;;;;;;;;;;;27.60;43.42;99159.03;4403427;27;34068;-96
2023/05/24 11:45:40;;;;;;;;;;;;;;;28.14;42.50;99156.28;4338220;33;34880;-95
2023/05/24 11:48:37;;;;;;;;;;;;;;;28.23;43.55;99154.63;4323255;33;34565;-96
2023/05/24 11:51:17;;;;;;;;;;;;;;;28.06;42.32;99158.78;4325535;33;31905;-94
2023/05/24 11:54:10;;;;;;;;;;;;;;;27.94;44.14;99158.03;4376724;27;34642;-95
2023/05/24 11:57:46;;;;;;;;;;;;;;;27.09;44.68;99156.16;4375146;27;35526;-96
2023/05/24 12:01:37;;;;;;;;;;;;;;;26.55;45.72;99158.69;4457345;27;34606;-96
2023/05/24 12:06:07;;;;;;;;;;;;;;;27.22;46.93;99151.50;4400969;27;35724;-93
2023/05/24 12:09:33;;;;;;;;;;;;;;;27.25;46.37;99153.94;4383869;27;33686;-93
2023/05/24 12:13:15;;;;;;;;;;;;;;;27.31;45.77;99148.09;4330083;28;36749;-95
2023/05/24 12:17:14;;;;;;;;;;;;;;;27.48;42.41;99145.81;4350562;27;35169;-95
2023/05/24 12:19:50;;;;;;;;;;;;;;;27.88;40.99;99147.78;4351430;33;34131;-95
2023/05/24 12:22:26;;;;;;;;;;;;;;;28.13;40.92;99142.06;4357256;27;34279;-94
2023/05/24 12:25:15;;;;;;;;;;;;;;;28.11;41.07;99153.88;4356937;27;36274;-95
2023/05/24 12:28:17;;;;;;;;;;;;;;;26.88;47.00;99154.28;4383141;27;34354;-95
2023/05/24 12:31:20;;;;;;;;;;;;;;;27.21;45.26;99160.50;4361855;27;33617;-94
2023/05/24 12:33:51;;;;;;;;;;;;;;;27.27;42.51;99151.16;4348599;33;34886;-95
2023/05/24 12:36:22;;;;;;;;;;;;;;;27.34;44.12;99145.19;4350012;33;34966;-95
2023/05/24 12:38:51;;;;;;;;;;;;;;;27.24;46.18;99142.38;4364173;32;34015;-94
2023/05/24 12:41:20;;;;;;;;;;;;;;;27.18;45.61;99139.37;4364952;32;34533;-93
2023/05/24 12:43:50;;;;;;;;;;;;;;;26.96;45.46;99141.13;4351663;32;33017;-96
2023/05/24 12:46:18;;;;;;;;;;;;;;;26.81;45.73;99132.56;4368229;32;35732;-93
2023/05/24 12:49:20;;;;;;;;;;;;;;;26.75;45.70;99138.41;4388494;32;36128;-94
2023/05/24 12:52:22;;;;;;;;;;;;;;;25.38;49.72;99114.38;4354846;32;34008;-94
2023/05/24 12:58:16;;;;;;;;;;;;;;;25.83;48.19;99119.81;4382365;27;35301;-93
2023/05/24 13:01:16;;;;;;;;;;;;;;;25.78;48.19;99119.31;4385349;32;34635;-94
2023/05/24 13:03:59;;;;;;;;;;;;;;;27.00;44.94;99123.03;4462996;27;33698;-94
2023/05/24 13:07:14;;;;;;;;;;;;;;;26.64;44.55;99125.06;4429193;27;35445;31
2023/05/24 13:10:27;;;;;;;;;;;;;;;27.15;45.20;99120.94;4383152;32;35117;-93
2023/05/24 13:12:57;;;;;;;;;;;;;;;26.96;46.14;99118.91;4374000;32;34683;-92
2023/05/24 13:15:52;;;;;;;;;;;;;;;26.96;45.23;99122.44;4386922;32;33542;-94
2023/05/24 13:18:33;;;;;;;;;;;;;;;27.51;44.25;99113.47;4377444;32;34988;-95
2023/05/24 13:21:10;;;;;;;;;;;;;;;27.14;42.87;99116.53;4451449;27;35173;-94
2023/05/24 13:23:44;;;;;;;;;;;;;;;27.24;43.67;99112.13;4369477;32;34305;-94
2023/05/24 13:26:13;;;;;;;;;;;;;;;26.66;46.17;99113.28;4366417;32;34029;-92
2023/05/24 13:28:42;;;;;;;;;;;;;;;26.57;45.38;99116.66;4354322;32;33964;-94
2023/05/24 13:31:41;;;;;;;;;;;;;;;26.56;44.73;99111.44;4359439;32;36056;-95
2023/05/24 13:34:54;;;;;;;;;;;;;;;26.44;48.09;99107.97;4366462;32;35687;-92
2023/05/24 13:38:32;;;;;;;;;;;;;;;27.01;44.04;99106.88;4391116;27;33854;-92
2023/05/24 13:41:21;;;;;;;;;;;;;;;27.02;45.32;99102.41;4340276;33;32604;-93
2023/05/24 13:43:56;;;;;;;;;;;;;;;26.90;44.90;99109.59;4351865;33;35853;-94
2023/05/24 13:46:56;;;;;;;;;;;;;;;26.28;45.92;99098.50;4387995;27;34766;-94
2023/05/24 13:49:37;;;;;;;;;;;;;;;26.73;45.59;99099.44;4404534;32;34550;-92
2023/05/24 13:52:29;;;;;;;;;;;;;;;27.21;42.89;99096.34;4386098;32;34134;-92
2023/05/24 13:55:06;;;;;;;;;;;;;;;27.23;42.77;99084.56;4396584;32;35212;-92
2023/05/24 13:57:54;;;;;;;;;;;;;;;27.28;42.67;99092.19;4400332;32;37083;-92
2023/05/24 14:00:36;;;;;;;;;;;;;;;27.42;41.50;99089.25;4400056;32;34372;-94
2023/05/24 14:03:21;;;;;;;;;;;;;;;26.88;44.71;99084.81;4401214;32;34539;-93
2023/05/24 14:06:18;;;;;;;;;;;;;;;26.44;47.06;99094.63;4402445;32;34934;-93
2023/05/24 14:08:58;;;;;;;;;;;;;;;26.49;45.65;99095.09;4404459;32;35854;-93
2023/05/24 14:11:32;;;;;;;;;;;;;;;26.33;46.31;99097.28;4402480;32;33614;-91
2023/05/24 14:14:03;;;;;;;;;;;;;;;26.28;46.24;99089.66;4398786;32;35680;-93
2023/05/24 14:16:57;;;;;;;;;;;;;;;25.62;46.69;99089.47;4359086;32;35333;-92
2023/05/24 14:19:46;;;;;;;;;;;;;;;25.60;47.77;99091.41;4370006;32;34919;-93
2023/05/24 14:22:24;;;;;;;;;;;;;;;25.54;49.54;99092.72;4357912;32;33320;-93
2023/05/24 14:25:15;;;;;;;;;;;;;;;26.12;46.90;99092.72;4359885;32;34101;-92
2023/05/24 14:27:50;;;;;;;;;;;;;;;25.40;47.96;99091.12;4358397;32;34907;-93
2023/05/24 14:30:47;;;;;;;;;;;;;;;25.01;47.15;99101.13;4369930;27;34707;-92
2023/05/24 14:33:39;;;;;;;;;;;;;;;24.94;47.45;99094.56;4349583;32;33488;-93
2023/05/24 14:36:09;;;;;;;;;;;;;;;25.14;47.82;99093.91;4361867;32;33654;-92
2023/05/24 14:38:44;;;;;;;;;;;;;;;24.94;49.57;99089.22;4346437;32;35163;-93
2023/05/24 14:41:29;;;;;;;;;;;;;;;25.24;47.85;99095.88;4371145;32;34455;-94
2023/05/24 14:44:04;;;;;;;;;;;;;;;24.50;50.37;99094.16;4378368;27;33249;-92
2023/05/24 14:46:40;;;;;;;;;;;;;;;25.04;48.72;99089.38;4354895;32;35243;-93
2023/05/24 14:50:00;;;;;;;;;;;;;;;24.76;50.80;99092.28;4394915;27;35596;-94
2023/05/24 14:52:45;;;;;;;;;;;;;;;25.04;49.39;99090.22;4377260;27;33649;-93
2023/05/24 14:55:15;;;;;;;;;;;;;;;24.72;51.17;99093.44;4394748;32;33104;-93
2023/05/24 14:57:51;;;;;;;;;;;;;;;25.24;49.65;99096.72;4399808;32;34379;-93
2023/05/24 15:01:01;;;;;;;;;;;;;;;25.52;47.91;99098.19;4388493;32;35599;-93
2023/05/24 15:04:14;;;;;;;;;;;;;;;25.32;46.34;99094.34;4402624;27;34883;-93
2023/05/24 15:07:27;;;;;;;;;;;;;;;25.61;46.63;99101.13;4397161;32;34505;-94
2023/05/24 15:09:56;;;;;;;;;;;;;;;25.63;45.71;99099.19;4395988;32;35040;-94
2023/05/24 15:12:35;;;;;;;;;;;;;;;25.57;46.33;99107.63;4398661;32;35241;-93
2023/05/24 15:15:31;;;;;;;;;;;;;;;25.37;45.50;99107.34;4412969;27;34679;-93
2023/05/24 15:18:34;;;;;;;;;;;;;;;25.06;47.23;99106.97;4398343;32;34101;-93